Boothbay Harbor, ME

7:04 AM EST on January 30, 2015 (GMT -0500)
KMESOUTH15 | Change Station
CLOSE
Current Station
Personal Weather Station
Location: Southport, ME
Elevation: 101 ft
Nearby Weather Stations
Active Advisory: Winter Storm Warning Active Notice: Public Information Statement

Elev 101 ft 43.83 °N, 69.67 °W | Updated 4 minutes ago

Snow
Snow
31.2 °F
Feels Like 31 °F
N
0.0
Wind Variable Wind from North
Gusts 0.0 mph

Today
High -- | Low -- °F
--% Chance of Precip.
Yesterday
High -- | Low -- °F
Precip. -- in
6:57 AM 4:46 PM
Waxing Gibbous, 82% visible
Pressure 29.89 in
Visibility 4.0 miles
Clouds Mostly Cloudy 700 ft
Overcast 1300 ft
Windchill 31 °F
Dew Point 29 °F
Humidity 92%
Rainfall 0.00 in
Snow Depth Not available.
UV 0 out of 12
Pollen .10 out of 12
Air Quality Not available.
Flu Activity Not available.
METAR KIWI 301153Z AUTO 00000KT 4SM -SN BR BKN007 OVC013 M04/M06 A2989 RMK AO2 CIG 006V010 SLP121 P0000 60002 70002 T10441056 11044 21083 56018

More Conditions Fewer Conditions

Pressure 29.89 in
Visibility 4.0 miles
Clouds Mostly Cloudy 700 ft
Overcast 1300 ft
Windchill 31 °F
Dew Point 29 °F
Humidity 92%
Rainfall 0.00 in
Snow Depth Not available.
UV 0 out of 12
Pollen .10 out of 12
Air Quality Not available.
Flu Activity Not available.
METAR KIWI 301153Z AUTO 00000KT 4SM -SN BR BKN007 OVC013 M04/M06 A2989 RMK AO2 CIG 006V010 SLP121 P0000 60002 70002 T10441056 11044 21083 56018

More Conditions Fewer Conditions

10-Day Weather Forecast

Almanac

Astronomy

Jan. 30, 2015 Rise Set
Actual Time
Civil Twilight
Nautical Twilight
Astronomical Twilight
Moon
Length of Visible Light
Length of Day
Tomorrow will be .
, % of the Moon is Illuminated

Today's Extremes

State Highs State Lows

Community

WunderPhotos

Upload Photos

1,791,738 photos uploaded!

WunderBlogs® & News

Nearby

Air Quality

  Air Quality AQ Index Pollutant
Not available.

Snow Depth

Station Depth Elevation

Earthquake Activity

City Distance Mag. Time & Date
Minimum magnitude displayed is 2.5.

Coastal Water Temperatures

Place Temperature

Nearby Weather Stations